Create Tblcommutelog Verified Points Advance Search
| # | Trip ID | Id Commuter | Trip Date | Trip Num | Current Lat | Current Lng | Delta Distance | Current Time | Activity | Activity Confidence | Current Speed | |
|---|---|---|---|---|---|---|---|---|---|---|---|---|
| 71741 | 251113_745514_16489587_0600 | 745514 | (not set) | (not set) | 38.856363333333 | -76.993683333333 | 54.2226 | 2025-11-13 07:42:12 | still | 33 | 3.0130446055773 | |
| 71742 | 251113_774439_16429090_0741 | 774439 | (not set) | (not set) | 38.844315401461 | -77.295700295988 | 0.0665 | 2025-11-13 07:42:12 | in_vehicle | 100 | 4.0278237234794 | |
| 71743 | 251113_786638_16514715_0643 | 786638 | (not set) | (not set) | 39.062419017451 | -76.639896316822 | 19.7661 | 2025-11-13 07:42:12 | in_vehicle | 100 | 3.5718436793119 | |
| 71744 | 251113_789715_16658619_0741 | 789715 | (not set) | (not set) | 38.82098562025 | -77.308643149778 | 0.2513 | 2025-11-13 07:42:13 | in_vehicle | 100 | 5.8562142927392 | |
| 71745 | 251113_787617_6461772_0629 | 787617 | (not set) | (not set) | 38.887634655629 | -77.017279815678 | 35.1411 | 2025-11-13 07:42:14 | in_vehicle | 100 | 0 | |
| 71746 | 251113_738572_16489587_0657 | 738572 | (not set) | (not set) | 38.889806589803 | -76.945157996648 | 18.2802 | 2025-11-13 07:42:14 | in_vehicle | 100 | 5.0783659821005 | |
| 71747 | 251113_766248_16509943_0732 | 766248 | (not set) | (not set) | 38.532424975298 | -77.357886261715 | 6.198 | 2025-11-13 07:42:15 | in_vehicle | 100 | 13.885039384159 | |
| 71748 | 251113_784811_6461772_0737 | 784811 | (not set) | (not set) | 38.854341703498 | -77.116584103039 | 0.8972 | 2025-11-13 07:42:15 | unknown | 100 | 5.4404677818806 | |
| 71749 | 251113_783924_16450333_0701 | 783924 | (not set) | (not set) | 38.87707919797 | -77.017627422997 | 35.5652 | 2025-11-13 07:42:15 | on_foot | 100 | -0.44703925898772 | |
| 71750 | 251113_783924_16450333_0701 | 783924 | (not set) | (not set) | 38.87707919797 | -77.017627422997 | 35.5652 | 2025-11-13 07:42:15 | on_foot | 100 | -0.44703925898772 | |
| 71751 | 251113_782405_16511739_0702 | 782405 | (not set) | (not set) | 38.906505739735 | -77.002768526324 | 5.4176 | 2025-11-13 07:42:16 | still | 33 | 3.7551297754969 | |
| 71752 | 251113_782405_16511739_0702 | 782405 | (not set) | (not set) | 38.906505739735 | -77.002768526324 | 5.4176 | 2025-11-13 07:42:16 | still | 33 | 3.7551297754969 | |
| 71753 | 251113_646766_6424458_0704 | 646766 | (not set) | (not set) | 38.898256945739 | -77.006465235695 | 13.9114 | 2025-11-13 07:42:16 | on_foot | 100 | -0.44703925898772 | |
| 71754 | 251113_784252_16652453_0706 | 784252 | (not set) | (not set) | 39.306220206372 | -76.929487984956 | 32.5352 | 2025-11-13 07:42:17 | in_vehicle | 100 | 7.1839208919327 | |
| 71755 | 251113_781975_16497756_0710 | 781975 | (not set) | (not set) | 38.896620177614 | -77.031871979328 | 23.2949 | 2025-11-13 07:42:17 | in_vehicle | 100 | 6.4597172923726 | |
| 71756 | 251113_781975_16497756_0710 | 781975 | (not set) | (not set) | 38.896620177614 | -77.031871979328 | 23.2949 | 2025-11-13 07:42:17 | in_vehicle | 100 | 6.4597172923726 | |
| 71757 | 251113_785147_16514010_0735 | 785147 | (not set) | (not set) | 39.1246269 | -78.1500808 | 1.3989 | 2025-11-13 07:42:18 | in_vehicle | 100 | 0 | |
| 71758 | 251113_731669_16507744_0658 | 731669 | (not set) | (not set) | 38.782040149741 | -77.384670553727 | 14.5786 | 2025-11-13 07:42:18 | in_vehicle | 100 | 9.9019195865781 | |
| 71759 | 251113_784811_6461772_0737 | 784811 | (not set) | (not set) | 38.85451317569 | -77.115947493141 | 0.9335 | 2025-11-13 07:42:20 | unknown | 100 | 5.5745795595769 | |
| 71760 | 251113_789455_16505281_0732 | 789455 | (not set) | (not set) | 38.919159357613 | -76.951817841791 | 2.8353 | 2025-11-13 07:42:20 | in_vehicle | 100 | 9.9466235124769 |